sensor_id;sensor_type;location;lat;lon;timestamp;temperature;humidity
2825;DHT22;1420;51.324;12.344;2023-05-14T00:01:12;13.40;99.90
2825;DHT22;1420;51.324;12.344;2023-05-14T00:03:39;13.40;99.90
2825;DHT22;1420;51.324;12.344;2023-05-14T00:06:06;13.40;99.90
2825;DHT22;1420;51.324;12.344;2023-05-14T00:08:34;13.40;99.90
2825;DHT22;1420;51.324;12.344;2023-05-14T00:11:01;13.40;99.90
2825;DHT22;1420;51.324;12.344;2023-05-14T00:13:29;13.30;99.90
2825;DHT22;1420;51.324;12.344;2023-05-14T00:15:56;13.30;99.90
2825;DHT22;1420;51.324;12.344;2023-05-14T00:18:23;13.30;99.90
2825;DHT22;1420;51.324;12.344;2023-05-14T00:20:50;13.40;99.90
2825;DHT22;1420;51.324;12.344;2023-05-14T00:23:17;13.30;99.90
2825;DHT22;1420;51.324;12.344;2023-05-14T00:25:45;13.30;99.90
2825;DHT22;1420;51.324;12.344;2023-05-14T00:28:13;13.30;99.90
2825;DHT22;1420;51.324;12.344;2023-05-14T00:30:40;13.30;99.90
2825;DHT22;1420;51.324;12.344;2023-05-14T00:33:07;13.30;99.90
2825;DHT22;1420;51.324;12.344;2023-05-14T00:35:34;13.40;99.90
2825;DHT22;1420;51.324;12.344;2023-05-14T00:40:25;13.30;99.90
2825;DHT22;1420;51.324;12.344;2023-05-14T00:42:52;13.20;99.90
2825;DHT22;1420;51.324;12.344;2023-05-14T00:45:19;13.30;99.90
2825;DHT22;1420;51.324;12.344;2023-05-14T00:47:47;13.20;99.90
2825;DHT22;1420;51.324;12.344;2023-05-14T00:50:14;13.20;99.90
2825;DHT22;1420;51.324;12.344;2023-05-14T00:52:42;13.10;99.90
2825;DHT22;1420;51.324;12.344;2023-05-14T00:55:10;13.10;99.90
2825;DHT22;1420;51.324;12.344;2023-05-14T00:57:37;13.00;99.90
2825;DHT22;1420;51.324;12.344;2023-05-14T01:00:05;13.00;99.90
2825;DHT22;1420;51.324;12.344;2023-05-14T01:02:32;13.10;99.90
2825;DHT22;1420;51.324;12.344;2023-05-14T01:05:00;13.10;99.90
2825;DHT22;1420;51.324;12.344;2023-05-14T01:07:48;13.10;99.90
2825;DHT22;1420;51.324;12.344;2023-05-14T01:10:20;13.10;99.90
2825;DHT22;1420;51.324;12.344;2023-05-14T01:12:51;13.00;99.90
2825;DHT22;1420;51.324;12.344;2023-05-14T01:15:16;13.10;99.90
2825;DHT22;1420;51.324;12.344;2023-05-14T01:17:45;13.10;99.90
2825;DHT22;1420;51.324;12.344;2023-05-14T01:20:13;13.10;99.90
2825;DHT22;1420;51.324;12.344;2023-05-14T01:22:40;13.00;99.90
2825;DHT22;1420;51.324;12.344;2023-05-14T01:25:08;13.00;99.90
2825;DHT22;1420;51.324;12.344;2023-05-14T01:27:56;13.00;99.90
2825;DHT22;1420;51.324;12.344;2023-05-14T01:30:22;13.00;99.90
2825;DHT22;1420;51.324;12.344;2023-05-14T01:32:50;12.90;99.90
2825;DHT22;1420;51.324;12.344;2023-05-14T01:35:15;12.90;99.90
2825;DHT22;1420;51.324;12.344;2023-05-14T01:37:42;12.90;99.90
2825;DHT22;1420;51.324;12.344;2023-05-14T01:40:09;12.90;99.90
2825;DHT22;1420;51.324;12.344;2023-05-14T01:42:37;13.00;99.90
2825;DHT22;1420;51.324;12.344;2023-05-14T01:45:04;13.00;99.90
2825;DHT22;1420;51.324;12.344;2023-05-14T01:47:31;13.00;99.90
2825;DHT22;1420;51.324;12.344;2023-05-14T01:49:58;13.10;99.90
2825;DHT22;1420;51.324;12.344;2023-05-14T01:52:26;13.00;99.90
2825;DHT22;1420;51.324;12.344;2023-05-14T01:54:54;12.90;99.90
2825;DHT22;1420;51.324;12.344;2023-05-14T01:57:21;13.10;99.90
2825;DHT22;1420;51.324;12.344;2023-05-14T01:59:48;12.90;99.90
2825;DHT22;1420;51.324;12.344;2023-05-14T02:02:15;12.80;99.90
2825;DHT22;1420;51.324;12.344;2023-05-14T02:04:43;12.90;99.90
2825;DHT22;1420;51.324;12.344;2023-05-14T02:07:10;12.80;99.90
2825;DHT22;1420;51.324;12.344;2023-05-14T02:09:37;12.80;99.90
2825;DHT22;1420;51.324;12.344;2023-05-14T02:12:04;12.80;99.90
2825;DHT22;1420;51.324;12.344;2023-05-14T02:14:32;12.80;99.90
2825;DHT22;1420;51.324;12.344;2023-05-14T02:17:00;12.90;99.90
2825;DHT22;1420;51.324;12.344;2023-05-14T02:19:28;12.90;99.90
2825;DHT22;1420;51.324;12.344;2023-05-14T02:21:55;12.90;99.90
2825;DHT22;1420;51.324;12.344;2023-05-14T02:24:22;13.00;99.90
2825;DHT22;1420;51.324;12.344;2023-05-14T02:26:49;13.00;99.90
2825;DHT22;1420;51.324;12.344;2023-05-14T02:29:17;12.90;99.90
2825;DHT22;1420;51.324;12.344;2023-05-14T02:31:44;12.90;99.90
2825;DHT22;1420;51.324;12.344;2023-05-14T02:34:11;12.90;99.90
2825;DHT22;1420;51.324;12.344;2023-05-14T02:36:38;13.00;99.90
2825;DHT22;1420;51.324;12.344;2023-05-14T02:39:05;12.90;99.90
2825;DHT22;1420;51.324;12.344;2023-05-14T02:41:33;12.90;99.90
2825;DHT22;1420;51.324;12.344;2023-05-14T02:44:00;12.90;99.90
2825;DHT22;1420;51.324;12.344;2023-05-14T02:46:27;12.80;99.90
2825;DHT22;1420;51.324;12.344;2023-05-14T02:48:54;12.90;99.90
2825;DHT22;1420;51.324;12.344;2023-05-14T02:51:22;12.80;99.90
2825;DHT22;1420;51.324;12.344;2023-05-14T02:53:49;12.70;99.90
2825;DHT22;1420;51.324;12.344;2023-05-14T02:56:17;12.80;99.90
2825;DHT22;1420;51.324;12.344;2023-05-14T02:58:44;12.80;99.90
2825;DHT22;1420;51.324;12.344;2023-05-14T03:01:11;12.90;99.90
2825;DHT22;1420;51.324;12.344;2023-05-14T03:03:38;12.80;99.90
2825;DHT22;1420;51.324;12.344;2023-05-14T03:06:06;12.80;99.90
2825;DHT22;1420;51.324;12.344;2023-05-14T03:08:33;12.70;99.90
2825;DHT22;1420;51.324;12.344;2023-05-14T03:11:00;12.80;99.90
2825;DHT22;1420;51.324;12.344;2023-05-14T03:13:27;12.70;99.90
2825;DHT22;1420;51.324;12.344;2023-05-14T03:15:54;12.60;99.90
2825;DHT22;1420;51.324;12.344;2023-05-14T03:18:22;12.50;99.90
2825;DHT22;1420;51.324;12.344;2023-05-14T03:20:49;12.50;99.90
2825;DHT22;1420;51.324;12.344;2023-05-14T03:23:16;12.60;99.90
2825;DHT22;1420;51.324;12.344;2023-05-14T03:25:43;12.60;99.90
2825;DHT22;1420;51.324;12.344;2023-05-14T03:28:11;12.60;99.90
2825;DHT22;1420;51.324;12.344;2023-05-14T03:30:38;12.60;99.90
2825;DHT22;1420;51.324;12.344;2023-05-14T03:33:05;12.50;99.90
2825;DHT22;1420;51.324;12.344;2023-05-14T03:35:32;12.60;99.90
2825;DHT22;1420;51.324;12.344;2023-05-14T03:37:59;12.50;99.90
2825;DHT22;1420;51.324;12.344;2023-05-14T03:40:27;12.60;99.90
2825;DHT22;1420;51.324;12.344;2023-05-14T03:42:54;12.50;99.90
2825;DHT22;1420;51.324;12.344;2023-05-14T03:45:21;12.50;99.90
2825;DHT22;1420;51.324;12.344;2023-05-14T03:47:48;12.50;99.90
2825;DHT22;1420;51.324;12.344;2023-05-14T03:50:16;12.50;99.90
2825;DHT22;1420;51.324;12.344;2023-05-14T03:52:43;12.50;99.90
2825;DHT22;1420;51.324;12.344;2023-05-14T03:55:11;12.50;99.90
2825;DHT22;1420;51.324;12.344;2023-05-14T03:57:39;12.50;99.90
2825;DHT22;1420;51.324;12.344;2023-05-14T04:00:07;12.50;99.90
2825;DHT22;1420;51.324;12.344;2023-05-14T04:02:34;12.60;99.90
2825;DHT22;1420;51.324;12.344;2023-05-14T04:05:02;12.60;99.90
2825;DHT22;1420;51.324;12.344;2023-05-14T04:07:30;12.70;99.90
2825;DHT22;1420;51.324;12.344;2023-05-14T04:09:58;12.70;99.90
2825;DHT22;1420;51.324;12.344;2023-05-14T04:12:25;12.70;99.90
2825;DHT22;1420;51.324;12.344;2023-05-14T04:14:52;12.80;99.90
2825;DHT22;1420;51.324;12.344;2023-05-14T04:17:20;12.80;99.90
2825;DHT22;1420;51.324;12.344;2023-05-14T04:19:47;12.70;99.90
2825;DHT22;1420;51.324;12.344;2023-05-14T04:22:14;12.80;99.90
2825;DHT22;1420;51.324;12.344;2023-05-14T04:24:41;12.80;99.90
2825;DHT22;1420;51.324;12.344;2023-05-14T04:27:09;12.90;99.90
2825;DHT22;1420;51.324;12.344;2023-05-14T04:29:36;12.90;99.90
2825;DHT22;1420;51.324;12.344;2023-05-14T04:32:03;12.90;99.90
2825;DHT22;1420;51.324;12.344;2023-05-14T04:34:31;13.00;99.90
2825;DHT22;1420;51.324;12.344;2023-05-14T04:36:59;13.00;99.90
2825;DHT22;1420;51.324;12.344;2023-05-14T04:39:26;12.90;99.90
2825;DHT22;1420;51.324;12.344;2023-05-14T04:41:53;13.00;99.90
2825;DHT22;1420;51.324;12.344;2023-05-14T04:44:20;13.10;99.90
2825;DHT22;1420;51.324;12.344;2023-05-14T04:46:47;13.00;99.90
2825;DHT22;1420;51.324;12.344;2023-05-14T04:49:15;13.10;99.90
2825;DHT22;1420;51.324;12.344;2023-05-14T04:51:42;13.10;99.90
2825;DHT22;1420;51.324;12.344;2023-05-14T04:54:10;13.30;99.90
2825;DHT22;1420;51.324;12.344;2023-05-14T04:56:37;13.20;99.90
2825;DHT22;1420;51.324;12.344;2023-05-14T04:59:04;13.30;99.90
2825;DHT22;1420;51.324;12.344;2023-05-14T05:01:31;13.30;99.90
2825;DHT22;1420;51.324;12.344;2023-05-14T05:03:59;13.30;99.90
2825;DHT22;1420;51.324;12.344;2023-05-14T05:06:26;13.40;99.90
2825;DHT22;1420;51.324;12.344;2023-05-14T05:08:53;13.50;99.90
2825;DHT22;1420;51.324;12.344;2023-05-14T05:11:21;13.80;99.90
2825;DHT22;1420;51.324;12.344;2023-05-14T05:13:49;13.80;99.90
2825;DHT22;1420;51.324;12.344;2023-05-14T05:16:16;14.00;99.90
2825;DHT22;1420;51.324;12.344;2023-05-14T05:18:43;14.10;99.90
2825;DHT22;1420;51.324;12.344;2023-05-14T05:21:11;14.30;99.90
2825;DHT22;1420;51.324;12.344;2023-05-14T05:23:38;14.40;99.90
2825;DHT22;1420;51.324;12.344;2023-05-14T05:26:05;14.40;99.90
2825;DHT22;1420;51.324;12.344;2023-05-14T05:28:32;14.40;99.90
2825;DHT22;1420;51.324;12.344;2023-05-14T05:30:59;14.40;99.90
2825;DHT22;1420;51.324;12.344;2023-05-14T05:33:27;14.50;99.90
2825;DHT22;1420;51.324;12.344;2023-05-14T05:35:54;14.70;99.90
2825;DHT22;1420;51.324;12.344;2023-05-14T05:38:21;14.60;99.90
2825;DHT22;1420;51.324;12.344;2023-05-14T05:40:48;14.70;99.90
2825;DHT22;1420;51.324;12.344;2023-05-14T05:43:15;15.00;99.90
2825;DHT22;1420;51.324;12.344;2023-05-14T05:45:43;16.10;99.90
2825;DHT22;1420;51.324;12.344;2023-05-14T05:48:11;16.10;99.90
2825;DHT22;1420;51.324;12.344;2023-05-14T05:50:38;16.80;99.90
2825;DHT22;1420;51.324;12.344;2023-05-14T05:53:05;17.20;99.90
2825;DHT22;1420;51.324;12.344;2023-05-14T05:55:33;17.70;99.90
2825;DHT22;1420;51.324;12.344;2023-05-14T05:58:01;18.30;99.90
2825;DHT22;1420;51.324;12.344;2023-05-14T06:00:28;18.20;99.90
2825;DHT22;1420;51.324;12.344;2023-05-14T06:02:56;18.50;99.90
2825;DHT22;1420;51.324;12.344;2023-05-14T06:05:23;18.80;99.90
2825;DHT22;1420;51.324;12.344;2023-05-14T06:07:50;18.50;99.90
2825;DHT22;1420;51.324;12.344;2023-05-14T06:10:18;19.00;99.00
2825;DHT22;1420;51.324;12.344;2023-05-14T06:12:45;19.40;96.60
2825;DHT22;1420;51.324;12.344;2023-05-14T06:15:12;19.70;95.20
2825;DHT22;1420;51.324;12.344;2023-05-14T06:17:39;19.90;92.60
2825;DHT22;1420;51.324;12.344;2023-05-14T06:20:07;20.20;91.00
2825;DHT22;1420;51.324;12.344;2023-05-14T06:22:34;20.60;89.40
2825;DHT22;1420;51.324;12.344;2023-05-14T06:25:01;20.20;84.10
2825;DHT22;1420;51.324;12.344;2023-05-14T06:27:29;19.80;88.00
2825;DHT22;1420;51.324;12.344;2023-05-14T06:29:56;20.60;83.30
2825;DHT22;1420;51.324;12.344;2023-05-14T06:32:23;20.80;80.50
2825;DHT22;1420;51.324;12.344;2023-05-14T06:34:51;21.40;77.40
2825;DHT22;1420;51.324;12.344;2023-05-14T06:37:19;21.30;80.50
2825;DHT22;1420;51.324;12.344;2023-05-14T06:39:46;21.30;80.30
2825;DHT22;1420;51.324;12.344;2023-05-14T06:42:14;21.60;77.50
2825;DHT22;1420;51.324;12.344;2023-05-14T06:44:41;22.10;72.70
2825;DHT22;1420;51.324;12.344;2023-05-14T06:47:08;22.00;71.80
2825;DHT22;1420;51.324;12.344;2023-05-14T06:49:35;21.60;71.20
2825;DHT22;1420;51.324;12.344;2023-05-14T06:52:02;21.50;69.70
2825;DHT22;1420;51.324;12.344;2023-05-14T06:54:30;20.80;72.30
2825;DHT22;1420;51.324;12.344;2023-05-14T06:56:58;21.40;70.60
2825;DHT22;1420;51.324;12.344;2023-05-14T06:59:25;21.80;70.10
2825;DHT22;1420;51.324;12.344;2023-05-14T07:01:53;22.10;68.10
2825;DHT22;1420;51.324;12.344;2023-05-14T07:04:20;22.10;68.10
2825;DHT22;1420;51.324;12.344;2023-05-14T07:06:47;22.40;64.70
2825;DHT22;1420;51.324;12.344;2023-05-14T07:09:15;22.60;64.00
2825;DHT22;1420;51.324;12.344;2023-05-14T07:11:43;23.30;61.50
2825;DHT22;1420;51.324;12.344;2023-05-14T07:14:10;23.20;61.40
2825;DHT22;1420;51.324;12.344;2023-05-14T07:16:37;23.50;59.50
2825;DHT22;1420;51.324;12.344;2023-05-14T07:19:04;22.30;62.70
2825;DHT22;1420;51.324;12.344;2023-05-14T07:21:32;22.60;62.30
2825;DHT22;1420;51.324;12.344;2023-05-14T07:23:59;22.70;62.00
2825;DHT22;1420;51.324;12.344;2023-05-14T07:26:26;23.40;58.50
2825;DHT22;1420;51.324;12.344;2023-05-14T07:28:54;22.50;58.90
2825;DHT22;1420;51.324;12.344;2023-05-14T07:31:22;22.80;58.90
2825;DHT22;1420;51.324;12.344;2023-05-14T07:33:49;22.80;58.80
2825;DHT22;1420;51.324;12.344;2023-05-14T07:36:16;23.20;58.10
2825;DHT22;1420;51.324;12.344;2023-05-14T07:38:44;23.10;56.40
2825;DHT22;1420;51.324;12.344;2023-05-14T07:41:11;23.30;56.00
2825;DHT22;1420;51.324;12.344;2023-05-14T07:43:38;23.70;55.80
2825;DHT22;1420;51.324;12.344;2023-05-14T07:46:06;23.20;55.40
2825;DHT22;1420;51.324;12.344;2023-05-14T07:48:33;23.10;55.40
2825;DHT22;1420;51.324;12.344;2023-05-14T07:51:01;22.10;56.60
2825;DHT22;1420;51.324;12.344;2023-05-14T07:53:28;22.00;58.50
2825;DHT22;1420;51.324;12.344;2023-05-14T07:55:55;22.40;56.40
2825;DHT22;1420;51.324;12.344;2023-05-14T07:58:22;22.50;56.00
2825;DHT22;1420;51.324;12.344;2023-05-14T08:00:49;21.80;56.90
2825;DHT22;1420;51.324;12.344;2023-05-14T08:03:17;22.90;55.70
2825;DHT22;1420;51.324;12.344;2023-05-14T08:05:45;22.90;55.50
2825;DHT22;1420;51.324;12.344;2023-05-14T08:08:12;22.60;55.00
2825;DHT22;1420;51.324;12.344;2023-05-14T08:10:39;22.60;55.30
2825;DHT22;1420;51.324;12.344;2023-05-14T08:13:06;23.30;55.90
2825;DHT22;1420;51.324;12.344;2023-05-14T08:15:34;23.40;53.90
2825;DHT22;1420;51.324;12.344;2023-05-14T08:18:01;24.00;52.10
2825;DHT22;1420;51.324;12.344;2023-05-14T08:20:29;24.60;49.80
2825;DHT22;1420;51.324;12.344;2023-05-14T08:22:56;24.60;49.80
2825;DHT22;1420;51.324;12.344;2023-05-14T08:25:23;23.90;49.80
2825;DHT22;1420;51.324;12.344;2023-05-14T08:27:50;23.20;51.90
2825;DHT22;1420;51.324;12.344;2023-05-14T08:30:18;22.80;52.80
2825;DHT22;1420;51.324;12.344;2023-05-14T08:32:46;23.10;52.40
2825;DHT22;1420;51.324;12.344;2023-05-14T08:35:14;23.10;52.80
2825;DHT22;1420;51.324;12.344;2023-05-14T08:37:41;23.00;52.70
2825;DHT22;1420;51.324;12.344;2023-05-14T08:40:08;23.20;53.90
2825;DHT22;1420;51.324;12.344;2023-05-14T08:42:37;23.30;51.60
2825;DHT22;1420;51.324;12.344;2023-05-14T08:45:03;22.50;50.90
2825;DHT22;1420;51.324;12.344;2023-05-14T08:47:31;22.20;53.40
2825;DHT22;1420;51.324;12.344;2023-05-14T08:50:03;23.60;52.60
2825;DHT22;1420;51.324;12.344;2023-05-14T08:52:31;23.50;52.30
2825;DHT22;1420;51.324;12.344;2023-05-14T08:54:59;23.50;52.30
2825;DHT22;1420;51.324;12.344;2023-05-14T08:57:26;23.60;52.10
2825;DHT22;1420;51.324;12.344;2023-05-14T08:59:53;23.10;52.60
2825;DHT22;1420;51.324;12.344;2023-05-14T09:02:23;23.70;51.80
2825;DHT22;1420;51.324;12.344;2023-05-14T09:04:51;23.70;51.80
2825;DHT22;1420;51.324;12.344;2023-05-14T09:07:17;23.80;51.50
2825;DHT22;1420;51.324;12.344;2023-05-14T09:09:44;23.90;47.90
2825;DHT22;1420;51.324;12.344;2023-05-14T09:12:11;24.10;47.10
2825;DHT22;1420;51.324;12.344;2023-05-14T09:14:38;23.40;48.80
2825;DHT22;1420;51.324;12.344;2023-05-14T09:17:06;23.10;51.30
2825;DHT22;1420;51.324;12.344;2023-05-14T09:19:33;23.70;51.70
2825;DHT22;1420;51.324;12.344;2023-05-14T09:22:00;22.80;52.80
2825;DHT22;1420;51.324;12.344;2023-05-14T09:24:31;22.90;51.50
2825;DHT22;1420;51.324;12.344;2023-05-14T09:27:07;23.40;51.30
2825;DHT22;1420;51.324;12.344;2023-05-14T09:29:41;22.80;51.40
2825;DHT22;1420;51.324;12.344;2023-05-14T09:32:15;21.50;53.60
2825;DHT22;1420;51.324;12.344;2023-05-14T09:34:50;21.10;53.50
2825;DHT22;1420;51.324;12.344;2023-05-14T09:37:21;21.50;55.60
2825;DHT22;1420;51.324;12.344;2023-05-14T09:39:49;21.10;55.50
2825;DHT22;1420;51.324;12.344;2023-05-14T09:42:16;21.20;57.00
2825;DHT22;1420;51.324;12.344;2023-05-14T09:44:44;21.00;54.70
2825;DHT22;1420;51.324;12.344;2023-05-14T09:47:10;21.00;55.80
2825;DHT22;1420;51.324;12.344;2023-05-14T09:49:38;21.80;54.30
2825;DHT22;1420;51.324;12.344;2023-05-14T09:52:05;22.10;51.80
2825;DHT22;1420;51.324;12.344;2023-05-14T09:54:32;22.00;52.00
2825;DHT22;1420;51.324;12.344;2023-05-14T09:57:00;21.30;52.80
2825;DHT22;1420;51.324;12.344;2023-05-14T09:59:28;21.30;52.70
2825;DHT22;1420;51.324;12.344;2023-05-14T10:01:55;20.90;53.40
2825;DHT22;1420;51.324;12.344;2023-05-14T10:04:22;21.00;53.90
2825;DHT22;1420;51.324;12.344;2023-05-14T10:06:50;21.50;52.70
2825;DHT22;1420;51.324;12.344;2023-05-14T10:09:17;21.30;53.40
2825;DHT22;1420;51.324;12.344;2023-05-14T10:11:45;21.50;53.10
2825;DHT22;1420;51.324;12.344;2023-05-14T10:14:23;21.50;53.10
2825;DHT22;1420;51.324;12.344;2023-05-14T10:16:48;21.10;53.20
2825;DHT22;1420;51.324;12.344;2023-05-14T10:19:14;21.00;53.00
2825;DHT22;1420;51.324;12.344;2023-05-14T10:21:44;21.00;53.70
2825;DHT22;1420;51.324;12.344;2023-05-14T10:24:10;20.90;53.50
2825;DHT22;1420;51.324;12.344;2023-05-14T10:26:38;20.60;54.80
2825;DHT22;1420;51.324;12.344;2023-05-14T10:29:05;20.60;54.80
2825;DHT22;1420;51.324;12.344;2023-05-14T10:31:46;20.60;54.40
2825;DHT22;1420;51.324;12.344;2023-05-14T10:34:51;20.50;54.90
2825;DHT22;1420;51.324;12.344;2023-05-14T10:37:04;20.20;55.60
2825;DHT22;1420;51.324;12.344;2023-05-14T10:39:40;20.10;55.00
2825;DHT22;1420;51.324;12.344;2023-05-14T10:42:09;19.90;54.20
2825;DHT22;1420;51.324;12.344;2023-05-14T10:44:35;19.90;54.20
2825;DHT22;1420;51.324;12.344;2023-05-14T10:47:02;19.90;55.50
2825;DHT22;1420;51.324;12.344;2023-05-14T10:49:29;19.80;55.60
2825;DHT22;1420;51.324;12.344;2023-05-14T10:51:56;20.20;54.50
2825;DHT22;1420;51.324;12.344;2023-05-14T10:54:26;20.20;54.20
2825;DHT22;1420;51.324;12.344;2023-05-14T10:56:51;20.00;53.70
2825;DHT22;1420;51.324;12.344;2023-05-14T10:59:18;20.00;53.60
2825;DHT22;1420;51.324;12.344;2023-05-14T11:01:46;20.50;56.20
2825;DHT22;1420;51.324;12.344;2023-05-14T11:04:17;20.40;56.00
2825;DHT22;1420;51.324;12.344;2023-05-14T11:06:45;20.60;53.30
2825;DHT22;1420;51.324;12.344;2023-05-14T11:09:12;20.10;52.60
2825;DHT22;1420;51.324;12.344;2023-05-14T11:11:39;20.00;53.00
2825;DHT22;1420;51.324;12.344;2023-05-14T11:14:07;19.80;53.20
2825;DHT22;1420;51.324;12.344;2023-05-14T11:16:35;19.90;53.10
2825;DHT22;1420;51.324;12.344;2023-05-14T11:19:03;19.80;53.00
2825;DHT22;1420;51.324;12.344;2023-05-14T11:21:29;19.90;53.40
2825;DHT22;1420;51.324;12.344;2023-05-14T11:23:58;20.20;54.10
2825;DHT22;1420;51.324;12.344;2023-05-14T11:26:24;20.30;53.60
2825;DHT22;1420;51.324;12.344;2023-05-14T11:28:52;20.30;53.60
2825;DHT22;1420;51.324;12.344;2023-05-14T11:31:20;20.40;53.20
2825;DHT22;1420;51.324;12.344;2023-05-14T11:33:46;20.30;53.70
2825;DHT22;1420;51.324;12.344;2023-05-14T11:36:13;20.30;53.50
2825;DHT22;1420;51.324;12.344;2023-05-14T11:38:45;20.20;54.30
2825;DHT22;1420;51.324;12.344;2023-05-14T11:41:13;19.60;59.70
2825;DHT22;1420;51.324;12.344;2023-05-14T11:43:40;19.50;59.60
2825;DHT22;1420;51.324;12.344;2023-05-14T11:46:07;19.90;59.00
2825;DHT22;1420;51.324;12.344;2023-05-14T11:48:34;19.50;59.60
2825;DHT22;1420;51.324;12.344;2023-05-14T11:51:03;19.60;60.80
2825;DHT22;1420;51.324;12.344;2023-05-14T11:53:29;19.50;60.00
2825;DHT22;1420;51.324;12.344;2023-05-14T11:55:56;19.60;61.70
2825;DHT22;1420;51.324;12.344;2023-05-14T11:58:24;19.50;62.30
2825;DHT22;1420;51.324;12.344;2023-05-14T12:00:52;19.50;62.30
2825;DHT22;1420;51.324;12.344;2023-05-14T12:03:19;19.60;62.70
2825;DHT22;1420;51.324;12.344;2023-05-14T12:05:57;19.60;62.80
2825;DHT22;1420;51.324;12.344;2023-05-14T12:08:26;19.60;63.10
2825;DHT22;1420;51.324;12.344;2023-05-14T12:10:52;19.90;62.30
2825;DHT22;1420;51.324;12.344;2023-05-14T12:13:19;19.90;60.40
2825;DHT22;1420;51.324;12.344;2023-05-14T12:15:52;20.00;56.80
2825;DHT22;1420;51.324;12.344;2023-05-14T12:18:15;20.00;56.70
2825;DHT22;1420;51.324;12.344;2023-05-14T12:20:45;20.00;57.00
2825;DHT22;1420;51.324;12.344;2023-05-14T12:23:12;19.70;58.70
2825;DHT22;1420;51.324;12.344;2023-05-14T12:25:44;19.60;58.60
2825;DHT22;1420;51.324;12.344;2023-05-14T12:28:13;19.70;58.10
2825;DHT22;1420;51.324;12.344;2023-05-14T12:30:40;19.70;57.80
2825;DHT22;1420;51.324;12.344;2023-05-14T12:33:07;19.60;58.00
2825;DHT22;1420;51.324;12.344;2023-05-14T12:35:35;19.60;58.70
2825;DHT22;1420;51.324;12.344;2023-05-14T12:38:02;19.60;58.70
2825;DHT22;1420;51.324;12.344;2023-05-14T12:40:30;19.50;58.60
2825;DHT22;1420;51.324;12.344;2023-05-14T12:42:57;19.40;58.50
2825;DHT22;1420;51.324;12.344;2023-05-14T12:45:25;19.60;58.50
2825;DHT22;1420;51.324;12.344;2023-05-14T12:47:52;19.90;57.90
2825;DHT22;1420;51.324;12.344;2023-05-14T12:50:20;19.70;58.50
2825;DHT22;1420;51.324;12.344;2023-05-14T12:52:47;19.70;58.50
2825;DHT22;1420;51.324;12.344;2023-05-14T12:55:15;19.90;58.50
2825;DHT22;1420;51.324;12.344;2023-05-14T12:57:43;20.40;59.00
2825;DHT22;1420;51.324;12.344;2023-05-14T13:00:10;20.30;58.90
2825;DHT22;1420;51.324;12.344;2023-05-14T13:02:39;20.80;57.70
2825;DHT22;1420;51.324;12.344;2023-05-14T13:05:06;20.80;57.70
2825;DHT22;1420;51.324;12.344;2023-05-14T13:07:33;20.60;57.20
2825;DHT22;1420;51.324;12.344;2023-05-14T13:10:01;20.60;56.50
2825;DHT22;1420;51.324;12.344;2023-05-14T13:12:29;20.40;57.80
2825;DHT22;1420;51.324;12.344;2023-05-14T13:14:56;20.40;57.30
2825;DHT22;1420;51.324;12.344;2023-05-14T13:17:23;20.30;58.70
2825;DHT22;1420;51.324;12.344;2023-05-14T13:19:50;20.20;59.50
2825;DHT22;1420;51.324;12.344;2023-05-14T13:22:17;20.50;59.90
2825;DHT22;1420;51.324;12.344;2023-05-14T13:24:45;20.20;58.80
2825;DHT22;1420;51.324;12.344;2023-05-14T13:27:12;20.20;58.10
2825;DHT22;1420;51.324;12.344;2023-05-14T13:29:39;19.80;58.40
2825;DHT22;1420;51.324;12.344;2023-05-14T13:32:07;19.70;56.00
2825;DHT22;1420;51.324;12.344;2023-05-14T13:34:34;19.60;55.80
2825;DHT22;1420;51.324;12.344;2023-05-14T13:37:02;19.60;56.30
2825;DHT22;1420;51.324;12.344;2023-05-14T13:39:29;19.50;55.00
2825;DHT22;1420;51.324;12.344;2023-05-14T13:41:57;19.30;56.60
2825;DHT22;1420;51.324;12.344;2023-05-14T13:44:25;19.20;56.90
2825;DHT22;1420;51.324;12.344;2023-05-14T13:46:52;19.20;56.90
2825;DHT22;1420;51.324;12.344;2023-05-14T13:49:19;19.20;57.00
2825;DHT22;1420;51.324;12.344;2023-05-14T13:51:46;19.10;57.50
2825;DHT22;1420;51.324;12.344;2023-05-14T13:54:14;19.20;58.40
2825;DHT22;1420;51.324;12.344;2023-05-14T13:56:41;19.50;57.70
2825;DHT22;1420;51.324;12.344;2023-05-14T13:59:08;19.40;58.30
2825;DHT22;1420;51.324;12.344;2023-05-14T14:01:35;19.60;58.20
2825;DHT22;1420;51.324;12.344;2023-05-14T14:04:02;19.90;58.00
2825;DHT22;1420;51.324;12.344;2023-05-14T14:06:30;19.70;57.80
2825;DHT22;1420;51.324;12.344;2023-05-14T14:08:57;19.70;57.70
2825;DHT22;1420;51.324;12.344;2023-05-14T14:11:25;19.60;58.10
2825;DHT22;1420;51.324;12.344;2023-05-14T14:13:53;19.50;58.10
2825;DHT22;1420;51.324;12.344;2023-05-14T14:16:21;19.60;58.30
2825;DHT22;1420;51.324;12.344;2023-05-14T14:18:48;19.60;58.20
2825;DHT22;1420;51.324;12.344;2023-05-14T14:21:16;19.60;57.60
2825;DHT22;1420;51.324;12.344;2023-05-14T14:23:44;19.60;59.00
2825;DHT22;1420;51.324;12.344;2023-05-14T14:26:10;19.90;57.60
2825;DHT22;1420;51.324;12.344;2023-05-14T14:28:37;20.00;57.10
2825;DHT22;1420;51.324;12.344;2023-05-14T14:31:05;19.90;57.30
2825;DHT22;1420;51.324;12.344;2023-05-14T14:33:32;19.80;58.70
2825;DHT22;1420;51.324;12.344;2023-05-14T14:35:59;19.90;57.40
2825;DHT22;1420;51.324;12.344;2023-05-14T14:38:27;20.10;53.60
2825;DHT22;1420;51.324;12.344;2023-05-14T14:40:54;20.10;53.60
2825;DHT22;1420;51.324;12.344;2023-05-14T14:43:22;20.00;52.50
2825;DHT22;1420;51.324;12.344;2023-05-14T14:45:49;19.80;53.40
2825;DHT22;1420;51.324;12.344;2023-05-14T14:48:29;19.70;53.40
2825;DHT22;1420;51.324;12.344;2023-05-14T14:50:58;19.90;55.40
2825;DHT22;1420;51.324;12.344;2023-05-14T14:53:25;19.80;55.20
2825;DHT22;1420;51.324;12.344;2023-05-14T14:55:52;20.00;54.30
2825;DHT22;1420;51.324;12.344;2023-05-14T14:58:19;19.90;54.10
2825;DHT22;1420;51.324;12.344;2023-05-14T15:00:47;19.70;55.00
2825;DHT22;1420;51.324;12.344;2023-05-14T15:03:14;19.80;55.90
2825;DHT22;1420;51.324;12.344;2023-05-14T15:05:41;19.70;56.00
2825;DHT22;1420;51.324;12.344;2023-05-14T15:08:12;19.60;57.00
2825;DHT22;1420;51.324;12.344;2023-05-14T15:10:40;19.90;57.40
2825;DHT22;1420;51.324;12.344;2023-05-14T15:13:07;20.20;57.30
2825;DHT22;1420;51.324;12.344;2023-05-14T15:15:34;20.00;57.70
2825;DHT22;1420;51.324;12.344;2023-05-14T15:18:01;19.90;58.30
2825;DHT22;1420;51.324;12.344;2023-05-14T15:20:28;20.00;58.90
2825;DHT22;1420;51.324;12.344;2023-05-14T15:22:55;19.80;58.30
2825;DHT22;1420;51.324;12.344;2023-05-14T15:25:23;19.80;59.20
2825;DHT22;1420;51.324;12.344;2023-05-14T15:27:50;19.50;60.10
2825;DHT22;1420;51.324;12.344;2023-05-14T15:30:18;19.90;59.60
2825;DHT22;1420;51.324;12.344;2023-05-14T15:32:45;19.80;59.50
2825;DHT22;1420;51.324;12.344;2023-05-14T15:35:13;19.90;59.20
2825;DHT22;1420;51.324;12.344;2023-05-14T15:37:41;20.10;59.80
2825;DHT22;1420;51.324;12.344;2023-05-14T15:40:07;19.70;60.40
2825;DHT22;1420;51.324;12.344;2023-05-14T15:42:36;19.60;61.70
2825;DHT22;1420;51.324;12.344;2023-05-14T15:45:03;19.60;61.60
2825;DHT22;1420;51.324;12.344;2023-05-14T15:47:31;19.60;61.60
2825;DHT22;1420;51.324;12.344;2023-05-14T15:49:59;19.60;61.90